Kezdőlap
METAR-TAF:

METAR-TAF

Repülőterek :

Musoma, Tanzánia

földrajzi szélesség: 01-30S, földrajzi hosszúság: 033-48E, magasság: 1147 m

Jelenlegi meteorológiai megfigyelések

A jelentés 1 órával és 1 perccel ezelõtt készült, 08:00 UTC
Szélcsend
Hőmérséklet 26°C
Páratartalom 70%
Légköri nyomás 1019 hPa
Látótávolság 10 km, vagy több
Kevés felhő 2200 lábon
Kevés felhő 2400 lábon, Cumulonimbus.
Szakadozott felhőzet 9000 lábon

METAR: HTMU 250800Z 00000KT 9999 FEW022 FEW024CB BKN090 26/20 Q1019

Idő: 12:01 (09:01 UTC)


TAF: hiányzik

Meteorológiai megfigyelések és előrejelzések több, mint 4000 repülőtéren (METAR és TAF jelentéseket).

A térképen piros és sárga pontok jelzik az elérhető meteorológiai állomásokat.

Mozgassa az egeret a pont fölött, hogy megjelenjen az állomás neve.

Azután kattintson az időjárási megfigyelések és előrejelzések megtekintéséhez.

A térkép megváltoztatása: kattintson a fekete keresztel jelölt zöld gombra ráközelítéshez, a vonallal jelölt zöld gombra távolításhoz, vagy a zöld nyilakra a szomszédos térképek eléréséhez.


METAR-TAF: